sensor_id;sensor_type;location;lat;lon;timestamp;pressure;altitude;pressure_sealevel;temperature;humidity
40570;BME280;26270;34.428;-119.710;2022-11-20T00:00:56;101445.28;;;21.81;20.09
40570;BME280;26270;34.428;-119.710;2022-11-20T00:03:24;101446.69;;;21.97;19.87
40570;BME280;26270;34.428;-119.710;2022-11-20T00:05:53;101450.25;;;21.99;20.11
40570;BME280;26270;34.428;-119.710;2022-11-20T00:08:21;101453.03;;;21.87;19.82
40570;BME280;26270;34.428;-119.710;2022-11-20T00:10:50;101452.57;;;21.85;19.56
40570;BME280;26270;34.428;-119.710;2022-11-20T00:13:18;101453.96;;;21.98;19.58
40570;BME280;26270;34.428;-119.710;2022-11-20T00:15:46;101459.52;;;21.94;19.53
40570;BME280;26270;34.428;-119.710;2022-11-20T00:18:15;101462.30;;;21.55;18.69
40570;BME280;26270;34.428;-119.710;2022-11-20T00:20:43;101463.59;;;21.65;18.58
40570;BME280;26270;34.428;-119.710;2022-11-20T00:23:11;101464.02;;;21.49;18.68
40570;BME280;26270;34.428;-119.710;2022-11-20T00:25:39;101466.23;;;21.34;18.57
40570;BME280;26270;34.428;-119.710;2022-11-20T00:28:08;101469.05;;;21.38;18.53
40570;BME280;26270;34.428;-119.710;2022-11-20T00:30:36;101472.17;;;21.20;19.47
40570;BME280;26270;34.428;-119.710;2022-11-20T00:33:05;101477.15;;;20.87;19.40
40570;BME280;26270;34.428;-119.710;2022-11-20T00:35:33;101478.30;;;21.05;18.75
40570;BME280;26270;34.428;-119.710;2022-11-20T00:38:01;101482.91;;;20.86;19.31
40570;BME280;26270;34.428;-119.710;2022-11-20T00:40:30;101484.21;;;20.76;19.50
40570;BME280;26270;34.428;-119.710;2022-11-20T00:42:58;101489.63;;;20.61;20.01
40570;BME280;26270;34.428;-119.710;2022-11-20T00:45:26;101489.21;;;20.33;20.32
40570;BME280;26270;34.428;-119.710;2022-11-20T00:47:54;101490.92;;;19.88;20.45
40570;BME280;26270;34.428;-119.710;2022-11-20T00:50:23;101492.05;;;19.85;21.16
40570;BME280;26270;34.428;-119.710;2022-11-20T00:52:51;101493.83;;;19.61;21.13
40570;BME280;26270;34.428;-119.710;2022-11-20T00:55:19;101492.30;;;19.48;21.40
40570;BME280;26270;34.428;-119.710;2022-11-20T00:57:48;101497.01;;;19.56;21.70
40570;BME280;26270;34.428;-119.710;2022-11-20T01:00:16;101498.12;;;19.40;21.63
40570;BME280;26270;34.428;-119.710;2022-11-20T01:02:45;101499.34;;;19.29;21.57
40570;BME280;26270;34.428;-119.710;2022-11-20T01:05:13;101501.82;;;19.31;21.24
40570;BME280;26270;34.428;-119.710;2022-11-20T01:07:41;101503.79;;;18.99;21.81
40570;BME280;26270;34.428;-119.710;2022-11-20T01:10:09;101505.62;;;18.96;22.11
40570;BME280;26270;34.428;-119.710;2022-11-20T01:12:37;101508.52;;;18.77;22.45
40570;BME280;26270;34.428;-119.710;2022-11-20T01:15:06;101510.63;;;18.86;22.51
40570;BME280;26270;34.428;-119.710;2022-11-20T01:17:35;101510.11;;;18.83;22.83
40570;BME280;26270;34.428;-119.710;2022-11-20T01:20:04;101515.03;;;18.67;23.07
40570;BME280;26270;34.428;-119.710;2022-11-20T01:22:33;101520.22;;;18.33;23.28
40570;BME280;26270;34.428;-119.710;2022-11-20T01:25:01;101526.86;;;18.51;23.29
40570;BME280;26270;34.428;-119.710;2022-11-20T01:27:29;101528.85;;;18.51;23.52
40570;BME280;26270;34.428;-119.710;2022-11-20T01:29:58;101530.24;;;18.39;23.53
40570;BME280;26270;34.428;-119.710;2022-11-20T01:32:26;101532.95;;;18.31;23.67
40570;BME280;26270;34.428;-119.710;2022-11-20T01:34:54;101536.94;;;18.36;23.92
40570;BME280;26270;34.428;-119.710;2022-11-20T01:37:23;101544.31;;;18.27;24.02
40570;BME280;26270;34.428;-119.710;2022-11-20T01:39:51;101548.46;;;18.17;24.85
40570;BME280;26270;34.428;-119.710;2022-11-20T01:42:19;101552.83;;;18.18;24.99
40570;BME280;26270;34.428;-119.710;2022-11-20T01:44:51;101554.95;;;17.87;25.28
40570;BME280;26270;34.428;-119.710;2022-11-20T01:47:25;101559.45;;;17.89;25.47
40570;BME280;26270;34.428;-119.710;2022-11-20T01:49:58;101565.70;;;17.65;25.86
40570;BME280;26270;34.428;-119.710;2022-11-20T01:52:33;101574.19;;;17.70;25.90
40570;BME280;26270;34.428;-119.710;2022-11-20T01:55:05;101571.36;;;17.47;25.71
40570;BME280;26270;34.428;-119.710;2022-11-20T01:57:35;101576.44;;;17.35;26.15
40570;BME280;26270;34.428;-119.710;2022-11-20T02:00:07;101578.77;;;17.39;26.45
40570;BME280;26270;34.428;-119.710;2022-11-20T02:02:37;101581.37;;;17.23;26.70
40570;BME280;26270;34.428;-119.710;2022-11-20T02:05:14;101587.66;;;16.98;26.34
40570;BME280;26270;34.428;-119.710;2022-11-20T02:07:46;101591.40;;;17.14;27.19
40570;BME280;26270;34.428;-119.710;2022-11-20T02:10:14;101592.67;;;16.99;26.67
40570;BME280;26270;34.428;-119.710;2022-11-20T02:12:42;101595.54;;;17.04;26.93
40570;BME280;26270;34.428;-119.710;2022-11-20T02:15:11;101597.71;;;16.94;26.80
40570;BME280;26270;34.428;-119.710;2022-11-20T02:17:40;101600.11;;;16.78;27.05
40570;BME280;26270;34.428;-119.710;2022-11-20T02:20:08;101602.11;;;16.78;27.17
40570;BME280;26270;34.428;-119.710;2022-11-20T02:22:44;101602.74;;;16.87;27.07
40570;BME280;26270;34.428;-119.710;2022-11-20T02:25:17;101608.35;;;16.76;27.29
40570;BME280;26270;34.428;-119.710;2022-11-20T02:27:45;101607.12;;;16.67;27.76
40570;BME280;26270;34.428;-119.710;2022-11-20T02:30:14;101611.38;;;16.66;28.42
40570;BME280;26270;34.428;-119.710;2022-11-20T02:32:44;101609.52;;;16.52;28.49
40570;BME280;26270;34.428;-119.710;2022-11-20T02:35:43;101609.78;;;16.59;28.26
40570;BME280;26270;34.428;-119.710;2022-11-20T02:38:13;101611.89;;;16.19;28.81
40570;BME280;26270;34.428;-119.710;2022-11-20T02:40:42;101610.78;;;16.28;28.94
40570;BME280;26270;34.428;-119.710;2022-11-20T02:43:10;101613.02;;;16.22;28.93
40570;BME280;26270;34.428;-119.710;2022-11-20T02:45:38;101616.61;;;16.06;29.19
40570;BME280;26270;34.428;-119.710;2022-11-20T02:48:07;101615.49;;;16.04;29.05
40570;BME280;26270;34.428;-119.710;2022-11-20T02:50:38;101615.23;;;15.97;29.35
40570;BME280;26270;34.428;-119.710;2022-11-20T02:53:06;101624.32;;;15.92;29.53
40570;BME280;26270;34.428;-119.710;2022-11-20T02:55:35;101629.95;;;15.73;29.70
40570;BME280;26270;34.428;-119.710;2022-11-20T02:58:04;101631.58;;;15.89;29.82
40570;BME280;26270;34.428;-119.710;2022-11-20T03:00:32;101635.41;;;16.04;29.39
40570;BME280;26270;34.428;-119.710;2022-11-20T03:03:01;101636.08;;;15.88;29.72
40570;BME280;26270;34.428;-119.710;2022-11-20T03:05:28;101636.10;;;15.75;29.67
40570;BME280;26270;34.428;-119.710;2022-11-20T03:07:56;101639.10;;;15.74;29.72
40570;BME280;26270;34.428;-119.710;2022-11-20T03:10:24;101643.57;;;15.73;29.70
40570;BME280;26270;34.428;-119.710;2022-11-20T03:12:54;101645.71;;;15.47;29.56
40570;BME280;26270;34.428;-119.710;2022-11-20T03:15:22;101649.17;;;15.31;29.71
40570;BME280;26270;34.428;-119.710;2022-11-20T03:17:54;101653.98;;;15.06;30.20
40570;BME280;26270;34.428;-119.710;2022-11-20T03:20:22;101657.51;;;15.41;29.97
40570;BME280;26270;34.428;-119.710;2022-11-20T03:22:50;101660.34;;;15.40;29.98
40570;BME280;26270;34.428;-119.710;2022-11-20T03:25:19;101665.90;;;15.28;30.58
40570;BME280;26270;34.428;-119.710;2022-11-20T03:27:47;101669.43;;;15.18;30.70
40570;BME280;26270;34.428;-119.710;2022-11-20T03:30:15;101667.16;;;15.14;30.56
40570;BME280;26270;34.428;-119.710;2022-11-20T03:32:44;101673.25;;;14.95;31.00
40570;BME280;26270;34.428;-119.710;2022-11-20T03:35:12;101676.44;;;15.05;30.96
40570;BME280;26270;34.428;-119.710;2022-11-20T03:37:40;101684.13;;;14.91;31.68
40570;BME280;26270;34.428;-119.710;2022-11-20T03:40:09;101687.20;;;14.89;31.97
40570;BME280;26270;34.428;-119.710;2022-11-20T03:42:37;101688.58;;;14.92;32.06
40570;BME280;26270;34.428;-119.710;2022-11-20T03:45:06;101693.34;;;14.88;32.28
40570;BME280;26270;34.428;-119.710;2022-11-20T03:47:35;101694.79;;;14.65;32.11
40570;BME280;26270;34.428;-119.710;2022-11-20T03:50:04;101697.58;;;14.43;32.14
40570;BME280;26270;34.428;-119.710;2022-11-20T03:52:32;101696.83;;;14.83;31.82
40570;BME280;26270;34.428;-119.710;2022-11-20T03:55:00;101699.23;;;14.46;32.45
40570;BME280;26270;34.428;-119.710;2022-11-20T03:57:27;101699.56;;;14.46;32.29
40570;BME280;26270;34.428;-119.710;2022-11-20T03:59:55;101704.28;;;14.47;32.69
40570;BME280;26270;34.428;-119.710;2022-11-20T04:02:23;101703.76;;;14.42;32.50
40570;BME280;26270;34.428;-119.710;2022-11-20T04:04:50;101700.73;;;14.50;32.34
40570;BME280;26270;34.428;-119.710;2022-11-20T04:07:18;101702.30;;;14.59;31.62
40570;BME280;26270;34.428;-119.710;2022-11-20T04:09:46;101700.47;;;14.51;31.71
40570;BME280;26270;34.428;-119.710;2022-11-20T04:12:14;101700.93;;;14.43;31.60
40570;BME280;26270;34.428;-119.710;2022-11-20T04:14:42;101707.73;;;14.59;32.16
40570;BME280;26270;34.428;-119.710;2022-11-20T04:17:10;101711.06;;;14.77;32.64
40570;BME280;26270;34.428;-119.710;2022-11-20T04:19:38;101713.95;;;14.55;32.81
40570;BME280;26270;34.428;-119.710;2022-11-20T04:22:06;101717.36;;;14.34;32.50
40570;BME280;26270;34.428;-119.710;2022-11-20T04:24:34;101719.42;;;14.43;32.83
40570;BME280;26270;34.428;-119.710;2022-11-20T04:27:02;101717.52;;;14.30;33.14
40570;BME280;26270;34.428;-119.710;2022-11-20T04:29:30;101717.78;;;14.24;33.04
40570;BME280;26270;34.428;-119.710;2022-11-20T04:31:58;101721.05;;;14.22;33.06
40570;BME280;26270;34.428;-119.710;2022-11-20T04:34:26;101722.20;;;14.30;33.23
40570;BME280;26270;34.428;-119.710;2022-11-20T04:36:55;101721.79;;;14.39;33.08
40570;BME280;26270;34.428;-119.710;2022-11-20T04:39:23;101726.30;;;14.11;33.25
40570;BME280;26270;34.428;-119.710;2022-11-20T04:41:51;101727.80;;;14.21;33.17
40570;BME280;26270;34.428;-119.710;2022-11-20T04:44:19;101730.08;;;14.04;33.03
40570;BME280;26270;34.428;-119.710;2022-11-20T04:46:47;101731.52;;;14.00;33.39
40570;BME280;26270;34.428;-119.710;2022-11-20T04:49:15;101729.09;;;13.86;32.89
40570;BME280;26270;34.428;-119.710;2022-11-20T04:51:43;101730.32;;;13.86;32.07
40570;BME280;26270;34.428;-119.710;2022-11-20T04:54:12;101733.59;;;13.80;31.48
40570;BME280;26270;34.428;-119.710;2022-11-20T04:56:40;101733.56;;;13.76;31.42
40570;BME280;26270;34.428;-119.710;2022-11-20T04:59:09;101733.78;;;13.77;30.91
40570;BME280;26270;34.428;-119.710;2022-11-20T05:03:19;101745.21;;;13.87;30.60
40570;BME280;26270;34.428;-119.710;2022-11-20T05:05:47;101747.17;;;13.86;31.24
40570;BME280;26270;34.428;-119.710;2022-11-20T05:08:14;101747.10;;;14.02;30.96
40570;BME280;26270;34.428;-119.710;2022-11-20T05:10:43;101749.00;;;13.80;31.17
40570;BME280;26270;34.428;-119.710;2022-11-20T05:13:12;101751.61;;;13.75;31.32
40570;BME280;26270;34.428;-119.710;2022-11-20T05:15:40;101756.75;;;13.82;31.52
40570;BME280;26270;34.428;-119.710;2022-11-20T05:18:09;101758.97;;;13.83;31.52
40570;BME280;26270;34.428;-119.710;2022-11-20T05:20:37;101762.08;;;13.63;31.92
40570;BME280;26270;34.428;-119.710;2022-11-20T05:23:04;101763.29;;;13.64;31.83
40570;BME280;26270;34.428;-119.710;2022-11-20T05:25:32;101762.93;;;13.44;32.02
40570;BME280;26270;34.428;-119.710;2022-11-20T05:28:00;101761.03;;;13.57;32.38
40570;BME280;26270;34.428;-119.710;2022-11-20T05:30:28;101767.35;;;13.45;32.77
40570;BME280;26270;34.428;-119.710;2022-11-20T05:32:56;101762.89;;;13.30;32.69
40570;BME280;26270;34.428;-119.710;2022-11-20T05:35:24;101762.63;;;13.31;32.27
40570;BME280;26270;34.428;-119.710;2022-11-20T05:37:53;101764.60;;;13.23;32.42
40570;BME280;26270;34.428;-119.710;2022-11-20T05:40:20;101767.60;;;13.12;32.43
40570;BME280;26270;34.428;-119.710;2022-11-20T05:42:48;101765.45;;;13.33;32.24
40570;BME280;26270;34.428;-119.710;2022-11-20T05:45:16;101768.18;;;13.22;32.51
40570;BME280;26270;34.428;-119.710;2022-11-20T05:47:44;101769.11;;;13.09;32.46
40570;BME280;26270;34.428;-119.710;2022-11-20T05:50:12;101768.64;;;12.85;33.23
40570;BME280;26270;34.428;-119.710;2022-11-20T05:52:40;101768.33;;;12.97;33.03
40570;BME280;26270;34.428;-119.710;2022-11-20T05:55:09;101770.55;;;13.04;32.60
40570;BME280;26270;34.428;-119.710;2022-11-20T05:57:37;101771.29;;;12.90;32.63
40570;BME280;26270;34.428;-119.710;2022-11-20T06:00:07;101775.09;;;12.82;32.45
40570;BME280;26270;34.428;-119.710;2022-11-20T06:02:35;101775.20;;;13.02;32.72
40570;BME280;26270;34.428;-119.710;2022-11-20T06:05:04;101775.95;;;13.17;32.98
40570;BME280;26270;34.428;-119.710;2022-11-20T06:07:31;101777.40;;;13.21;33.17
40570;BME280;26270;34.428;-119.710;2022-11-20T06:09:59;101779.43;;;13.02;32.91
40570;BME280;26270;34.428;-119.710;2022-11-20T06:12:27;101777.90;;;12.84;32.60
40570;BME280;26270;34.428;-119.710;2022-11-20T06:14:54;101778.85;;;12.82;32.75
40570;BME280;26270;34.428;-119.710;2022-11-20T06:17:22;101781.45;;;12.93;33.13
40570;BME280;26270;34.428;-119.710;2022-11-20T06:19:51;101783.57;;;12.78;32.98
40570;BME280;26270;34.428;-119.710;2022-11-20T06:22:19;101780.67;;;12.59;33.43
40570;BME280;26270;34.428;-119.710;2022-11-20T06:24:48;101787.69;;;12.81;33.51
40570;BME280;26270;34.428;-119.710;2022-11-20T06:27:16;101787.37;;;12.71;33.23
40570;BME280;26270;34.428;-119.710;2022-11-20T06:29:45;101782.65;;;12.64;33.23
40570;BME280;26270;34.428;-119.710;2022-11-20T06:32:13;101779.06;;;12.61;33.15
40570;BME280;26270;34.428;-119.710;2022-11-20T06:34:41;101778.10;;;12.51;33.19
40570;BME280;26270;34.428;-119.710;2022-11-20T06:37:09;101782.21;;;12.69;32.87
40570;BME280;26270;34.428;-119.710;2022-11-20T06:39:37;101779.61;;;12.46;33.24
40570;BME280;26270;34.428;-119.710;2022-11-20T06:42:05;101778.58;;;12.37;33.29
40570;BME280;26270;34.428;-119.710;2022-11-20T06:44:34;101780.61;;;12.42;33.20
40570;BME280;26270;34.428;-119.710;2022-11-20T06:47:02;101781.54;;;12.60;33.36
40570;BME280;26270;34.428;-119.710;2022-11-20T06:49:30;101786.50;;;12.51;33.52
40570;BME280;26270;34.428;-119.710;2022-11-20T06:51:58;101788.01;;;12.55;33.98
40570;BME280;26270;34.428;-119.710;2022-11-20T06:54:27;101786.56;;;12.33;33.83
40570;BME280;26270;34.428;-119.710;2022-11-20T06:56:55;101786.81;;;12.40;33.81
40570;BME280;26270;34.428;-119.710;2022-11-20T06:59:23;101785.85;;;12.36;34.15
40570;BME280;26270;34.428;-119.710;2022-11-20T07:01:51;101785.68;;;12.38;34.24
40570;BME280;26270;34.428;-119.710;2022-11-20T07:04:19;101792.09;;;12.20;34.49
40570;BME280;26270;34.428;-119.710;2022-11-20T07:06:48;101787.03;;;12.33;34.56
40570;BME280;26270;34.428;-119.710;2022-11-20T07:09:16;101786.76;;;12.18;34.57
40570;BME280;26270;34.428;-119.710;2022-11-20T07:11:45;101791.76;;;12.33;34.90
40570;BME280;26270;34.428;-119.710;2022-11-20T07:14:13;101790.08;;;12.20;35.01
40570;BME280;26270;34.428;-119.710;2022-11-20T07:16:42;101787.46;;;11.95;35.10
40570;BME280;26270;34.428;-119.710;2022-11-20T07:19:15;101784.76;;;12.07;35.38
40570;BME280;26270;34.428;-119.710;2022-11-20T07:21:44;101782.64;;;12.10;35.55
40570;BME280;26270;34.428;-119.710;2022-11-20T07:24:12;101783.91;;;12.22;35.58
40570;BME280;26270;34.428;-119.710;2022-11-20T07:26:40;101787.95;;;12.18;35.74
40570;BME280;26270;34.428;-119.710;2022-11-20T07:29:09;101785.10;;;12.12;36.31
40570;BME280;26270;34.428;-119.710;2022-11-20T07:31:37;101786.21;;;12.09;36.52
40570;BME280;26270;34.428;-119.710;2022-11-20T07:34:06;101785.25;;;11.82;36.73
40570;BME280;26270;34.428;-119.710;2022-11-20T07:36:34;101780.94;;;12.11;35.78
40570;BME280;26270;34.428;-119.710;2022-11-20T07:39:03;101783.21;;;11.92;36.40
40570;BME280;26270;34.428;-119.710;2022-11-20T07:41:31;101776.26;;;12.14;36.42
40570;BME280;26270;34.428;-119.710;2022-11-20T07:44:00;101775.71;;;11.77;36.68
40570;BME280;26270;34.428;-119.710;2022-11-20T07:46:29;101771.91;;;11.79;36.54
40570;BME280;26270;34.428;-119.710;2022-11-20T07:48:58;101770.14;;;12.07;35.98
40570;BME280;26270;34.428;-119.710;2022-11-20T07:51:26;101768.57;;;12.14;35.43
40570;BME280;26270;34.428;-119.710;2022-11-20T07:53:55;101768.70;;;11.87;35.16
40570;BME280;26270;34.428;-119.710;2022-11-20T07:56:23;101767.53;;;11.78;33.83
40570;BME280;26270;34.428;-119.710;2022-11-20T07:58:52;101760.47;;;11.67;33.64
40570;BME280;26270;34.428;-119.710;2022-11-20T08:01:21;101754.86;;;11.52;33.91
40570;BME280;26270;34.428;-119.710;2022-11-20T08:03:49;101753.86;;;11.72;34.38
40570;BME280;26270;34.428;-119.710;2022-11-20T08:06:18;101751.58;;;11.51;34.87
40570;BME280;26270;34.428;-119.710;2022-11-20T08:08:46;101748.41;;;11.60;34.83
40570;BME280;26270;34.428;-119.710;2022-11-20T08:11:14;101746.98;;;11.81;35.68
40570;BME280;26270;34.428;-119.710;2022-11-20T08:13:42;101744.31;;;11.64;35.27
40570;BME280;26270;34.428;-119.710;2022-11-20T08:16:10;101739.24;;;11.79;34.57
40570;BME280;26270;34.428;-119.710;2022-11-20T08:18:38;101738.37;;;11.67;34.21
40570;BME280;26270;34.428;-119.710;2022-11-20T08:21:06;101735.28;;;11.74;33.59
40570;BME280;26270;34.428;-119.710;2022-11-20T08:23:34;101735.59;;;11.61;33.35
40570;BME280;26270;34.428;-119.710;2022-11-20T08:26:03;101729.19;;;11.61;33.38
40570;BME280;26270;34.428;-119.710;2022-11-20T08:28:30;101730.93;;;11.58;32.66
40570;BME280;26270;34.428;-119.710;2022-11-20T08:30:59;101726.27;;;11.63;32.54
40570;BME280;26270;34.428;-119.710;2022-11-20T08:33:27;101723.68;;;11.71;32.29
40570;BME280;26270;34.428;-119.710;2022-11-20T08:36:00;101720.66;;;11.80;32.26
40570;BME280;26270;34.428;-119.710;2022-11-20T08:38:29;101718.72;;;11.35;31.35
40570;BME280;26270;34.428;-119.710;2022-11-20T08:40:57;101718.23;;;11.54;31.21
40570;BME280;26270;34.428;-119.710;2022-11-20T08:43:25;101719.66;;;11.39;31.90
40570;BME280;26270;34.428;-119.710;2022-11-20T08:45:56;101717.31;;;11.28;32.41
40570;BME280;26270;34.428;-119.710;2022-11-20T08:48:24;101715.61;;;11.39;32.82
40570;BME280;26270;34.428;-119.710;2022-11-20T08:50:53;101710.30;;;11.29;32.87
40570;BME280;26270;34.428;-119.710;2022-11-20T08:53:21;101714.71;;;11.23;32.54
40570;BME280;26270;34.428;-119.710;2022-11-20T08:55:49;101715.43;;;11.19;32.96
40570;BME280;26270;34.428;-119.710;2022-11-20T08:58:17;101712.47;;;11.14;33.28
40570;BME280;26270;34.428;-119.710;2022-11-20T09:00:45;101712.41;;;11.01;33.47
40570;BME280;26270;34.428;-119.710;2022-11-20T09:03:14;101714.00;;;11.05;33.59
40570;BME280;26270;34.428;-119.710;2022-11-20T09:05:41;101711.75;;;11.00;33.44
40570;BME280;26270;34.428;-119.710;2022-11-20T09:08:09;101714.03;;;11.07;33.44
40570;BME280;26270;34.428;-119.710;2022-11-20T09:10:38;101714.49;;;10.90;33.47
40570;BME280;26270;34.428;-119.710;2022-11-20T09:13:06;101712.35;;;11.09;32.28
40570;BME280;26270;34.428;-119.710;2022-11-20T09:15:35;101717.56;;;11.17;32.58
40570;BME280;26270;34.428;-119.710;2022-11-20T09:18:04;101718.98;;;10.92;32.58
40570;BME280;26270;34.428;-119.710;2022-11-20T09:20:32;101719.52;;;10.81;32.62
40570;BME280;26270;34.428;-119.710;2022-11-20T09:22:59;101714.54;;;11.07;31.38
40570;BME280;26270;34.428;-119.710;2022-11-20T09:25:27;101715.07;;;11.00;31.22
40570;BME280;26270;34.428;-119.710;2022-11-20T09:27:56;101718.48;;;11.11;30.65
40570;BME280;26270;34.428;-119.710;2022-11-20T09:30:25;101718.54;;;11.01;31.53
40570;BME280;26270;34.428;-119.710;2022-11-20T09:32:54;101716.54;;;10.99;32.10
40570;BME280;26270;34.428;-119.710;2022-11-20T09:35:22;101719.10;;;11.01;30.93
40570;BME280;26270;34.428;-119.710;2022-11-20T09:37:51;101717.34;;;11.18;30.61
40570;BME280;26270;34.428;-119.710;2022-11-20T09:40:22;101719.22;;;11.25;30.50
40570;BME280;26270;34.428;-119.710;2022-11-20T09:42:56;101712.70;;;11.42;30.34
40570;BME280;26270;34.428;-119.710;2022-11-20T09:45:36;101715.66;;;11.15;30.93
40570;BME280;26270;34.428;-119.710;2022-11-20T09:48:18;101716.01;;;11.13;31.24
40570;BME280;26270;34.428;-119.710;2022-11-20T09:50:53;101719.53;;;11.15;31.82
40570;BME280;26270;34.428;-119.710;2022-11-20T09:53:30;101719.85;;;11.09;32.43
40570;BME280;26270;34.428;-119.710;2022-11-20T09:56:04;101720.94;;;10.83;32.52
40570;BME280;26270;34.428;-119.710;2022-11-20T09:58:35;101718.68;;;10.94;32.70
40570;BME280;26270;34.428;-119.710;2022-11-20T10:01:16;101718.14;;;10.93;32.20
40570;BME280;26270;34.428;-119.710;2022-11-20T10:03:53;101716.23;;;10.91;32.11
40570;BME280;26270;34.428;-119.710;2022-11-20T10:06:29;101717.21;;;10.75;32.56
40570;BME280;26270;34.428;-119.710;2022-11-20T10:09:06;101714.24;;;10.48;32.34
40570;BME280;26270;34.428;-119.710;2022-11-20T10:11:46;101714.02;;;10.62;32.18
40570;BME280;26270;34.428;-119.710;2022-11-20T10:14:24;101718.73;;;10.74;32.66
40570;BME280;26270;34.428;-119.710;2022-11-20T10:17:01;101719.36;;;10.51;32.94
40570;BME280;26270;34.428;-119.710;2022-11-20T10:19:42;101716.51;;;10.62;32.91
40570;BME280;26270;34.428;-119.710;2022-11-20T10:22:22;101716.97;;;10.48;32.94
40570;BME280;26270;34.428;-119.710;2022-11-20T10:24:56;101714.99;;;10.56;32.27
40570;BME280;26270;34.428;-119.710;2022-11-20T10:27:42;101712.75;;;10.62;32.52
40570;BME280;26270;34.428;-119.710;2022-11-20T10:30:14;101710.13;;;10.74;32.08
40570;BME280;26270;34.428;-119.710;2022-11-20T10:32:47;101708.08;;;10.62;31.37
40570;BME280;26270;34.428;-119.710;2022-11-20T10:35:21;101709.21;;;10.69;31.09
40570;BME280;26270;34.428;-119.710;2022-11-20T10:37:54;101707.05;;;10.63;31.64
40570;BME280;26270;34.428;-119.710;2022-11-20T10:40:30;101709.44;;;10.35;32.44
40570;BME280;26270;34.428;-119.710;2022-11-20T10:43:03;101710.65;;;10.42;32.07
40570;BME280;26270;34.428;-119.710;2022-11-20T10:45:44;101707.20;;;10.47;32.29
40570;BME280;26270;34.428;-119.710;2022-11-20T10:48:19;101706.63;;;10.55;32.24
40570;BME280;26270;34.428;-119.710;2022-11-20T10:51:09;101709.50;;;10.49;32.46
40570;BME280;26270;34.428;-119.710;2022-11-20T10:53:50;101711.68;;;10.55;32.31
40570;BME280;26270;34.428;-119.710;2022-11-20T10:56:22;101708.83;;;10.60;31.54
40570;BME280;26270;34.428;-119.710;2022-11-20T10:59:24;101704.20;;;10.44;31.61
40570;BME280;26270;34.428;-119.710;2022-11-20T11:01:55;101705.29;;;10.38;31.65
40570;BME280;26270;34.428;-119.710;2022-11-20T11:04:35;101705.35;;;10.41;31.82
40570;BME280;26270;34.428;-119.710;2022-11-20T11:07:10;101706.42;;;10.26;32.36
40570;BME280;26270;34.428;-119.710;2022-11-20T11:09:44;101706.58;;;10.30;32.16
40570;BME280;26270;34.428;-119.710;2022-11-20T11:12:14;101711.98;;;10.23;32.34
40570;BME280;26270;34.428;-119.710;2022-11-20T11:14:45;101710.27;;;10.18;32.26
40570;BME280;26270;34.428;-119.710;2022-11-20T11:17:23;101713.13;;;10.27;32.32
40570;BME280;26270;34.428;-119.710;2022-11-20T11:20:02;101711.86;;;10.28;31.39
40570;BME280;26270;34.428;-119.710;2022-11-20T11:22:34;101714.00;;;10.27;30.75
40570;BME280;26270;34.428;-119.710;2022-11-20T11:25:02;101715.43;;;10.10;30.28
40570;BME280;26270;34.428;-119.710;2022-11-20T11:27:31;101719.10;;;10.53;29.91
40570;BME280;26270;34.428;-119.710;2022-11-20T11:30:13;101716.05;;;10.25;30.86
40570;BME280;26270;34.428;-119.710;2022-11-20T11:32:41;101716.93;;;10.32;30.48
40570;BME280;26270;34.428;-119.710;2022-11-20T11:35:23;101719.27;;;10.28;30.50
40570;BME280;26270;34.428;-119.710;2022-11-20T11:37:54;101728.51;;;10.52;30.56
40570;BME280;26270;34.428;-119.710;2022-11-20T11:40:35;101729.49;;;10.09;31.23
40570;BME280;26270;34.428;-119.710;2022-11-20T11:43:07;101729.04;;;10.21;31.64
40570;BME280;26270;34.428;-119.710;2022-11-20T11:45:53;101731.69;;;10.19;31.53
40570;BME280;26270;34.428;-119.710;2022-11-20T11:48:22;101731.52;;;10.14;31.26
40570;BME280;26270;34.428;-119.710;2022-11-20T11:50:51;101734.42;;;10.28;31.11
40570;BME280;26270;34.428;-119.710;2022-11-20T11:53:21;101734.67;;;10.03;31.01
40570;BME280;26270;34.428;-119.710;2022-11-20T11:55:54;101739.67;;;9.99;30.76
40570;BME280;26270;34.428;-119.710;2022-11-20T11:58:38;101742.49;;;10.04;31.48
40570;BME280;26270;34.428;-119.710;2022-11-20T12:01:21;101747.20;;;10.20;31.81
40570;BME280;26270;34.428;-119.710;2022-11-20T12:03:59;101751.42;;;9.97;31.98
40570;BME280;26270;34.428;-119.710;2022-11-20T12:06:30;101749.13;;;10.06;31.82
40570;BME280;26270;34.428;-119.710;2022-11-20T12:09:03;101746.02;;;10.14;31.08
40570;BME280;26270;34.428;-119.710;2022-11-20T12:11:37;101742.84;;;10.20;30.85
40570;BME280;26270;34.428;-119.710;2022-11-20T12:14:14;101753.37;;;10.00;31.61
40570;BME280;26270;34.428;-119.710;2022-11-20T12:16:45;101757.76;;;9.92;31.13
40570;BME280;26270;34.428;-119.710;2022-11-20T12:19:14;101760.11;;;10.01;31.47
40570;BME280;26270;34.428;-119.710;2022-11-20T12:21:52;101760.24;;;9.93;31.89
40570;BME280;26270;34.428;-119.710;2022-11-20T12:24:43;101758.73;;;10.04;31.22
40570;BME280;26270;34.428;-119.710;2022-11-20T12:27:35;101759.04;;;9.78;31.49
40570;BME280;26270;34.428;-119.710;2022-11-20T12:30:08;101758.74;;;10.04;31.48
40570;BME280;26270;34.428;-119.710;2022-11-20T12:32:48;101758.85;;;9.86;31.65
40570;BME280;26270;34.428;-119.710;2022-11-20T12:35:34;101754.77;;;9.86;31.90
40570;BME280;26270;34.428;-119.710;2022-11-20T12:38:25;101756.85;;;9.99;31.18